sensor_id;sensor_type;location;lat;lon;timestamp;temperature;humidity
36214;DHT22;37652;50.400;30.628;2023-04-06T00:01:27;8.30;91.40
36214;DHT22;37652;50.400;30.628;2023-04-06T00:03:28;8.60;90.80
36214;DHT22;37652;50.400;30.628;2023-04-06T00:07:31;8.90;90.80
36214;DHT22;37652;50.400;30.628;2023-04-06T00:09:33;9.10;90.80
36214;DHT22;37652;50.400;30.628;2023-04-06T00:11:34;9.00;90.70
36214;DHT22;37652;50.400;30.628;2023-04-06T00:13:35;8.80;90.50
36214;DHT22;37652;50.400;30.628;2023-04-06T00:15:35;8.90;90.50
36214;DHT22;37652;50.400;30.628;2023-04-06T00:17:36;9.00;89.50
36214;DHT22;37652;50.400;30.628;2023-04-06T00:19:37;8.60;90.50
36214;DHT22;37652;50.400;30.628;2023-04-06T00:21:38;9.00;90.50
36214;DHT22;37652;50.400;30.628;2023-04-06T00:23:39;9.10;90.60
36214;DHT22;37652;50.400;30.628;2023-04-06T00:25:40;8.70;90.40
36214;DHT22;37652;50.400;30.628;2023-04-06T00:27:41;9.10;90.50
36214;DHT22;37652;50.400;30.628;2023-04-06T00:37:46;9.20;92.50
36214;DHT22;37652;50.400;30.628;2023-04-06T00:39:48;8.70;90.70
36214;DHT22;37652;50.400;30.628;2023-04-06T00:41:51;8.80;90.60
36214;DHT22;37652;50.400;30.628;2023-04-06T00:43:53;9.50;90.80
36214;DHT22;37652;50.400;30.628;2023-04-06T00:45:54;8.80;90.60
36214;DHT22;37652;50.400;30.628;2023-04-06T00:47:56;8.50;90.60
36214;DHT22;37652;50.400;30.628;2023-04-06T00:49:56;9.10;90.70
36214;DHT22;37652;50.400;30.628;2023-04-06T00:51:57;9.40;90.70
36214;DHT22;37652;50.400;30.628;2023-04-06T00:53:58;9.20;90.70
36214;DHT22;37652;50.400;30.628;2023-04-06T00:55:59;9.00;89.00
36214;DHT22;37652;50.400;30.628;2023-04-06T00:58:00;9.10;91.10
36214;DHT22;37652;50.400;30.628;2023-04-06T01:00:01;9.10;90.90
36214;DHT22;37652;50.400;30.628;2023-04-06T01:02:03;8.70;90.90
36214;DHT22;37652;50.400;30.628;2023-04-06T01:04:04;9.60;91.00
36214;DHT22;37652;50.400;30.628;2023-04-06T01:06:04;9.20;91.00
36214;DHT22;37652;50.400;30.628;2023-04-06T01:08:06;10.20;91.30
36214;DHT22;37652;50.400;30.628;2023-04-06T01:12:08;9.20;91.00
36214;DHT22;37652;50.400;30.628;2023-04-06T01:14:09;9.10;91.10
36214;DHT22;37652;50.400;30.628;2023-04-06T01:16:10;9.00;89.60
36214;DHT22;37652;50.400;30.628;2023-04-06T01:18:11;9.10;91.00
36214;DHT22;37652;50.400;30.628;2023-04-06T01:20:12;9.10;91.00
36214;DHT22;37652;50.400;30.628;2023-04-06T01:22:15;8.80;90.90
36214;DHT22;37652;50.400;30.628;2023-04-06T01:24:16;9.40;90.50
36214;DHT22;37652;50.400;30.628;2023-04-06T01:26:17;8.50;90.90
36214;DHT22;37652;50.400;30.628;2023-04-06T01:28:17;8.80;91.00
36214;DHT22;37652;50.400;30.628;2023-04-06T01:30:18;8.90;91.10
36214;DHT22;37652;50.400;30.628;2023-04-06T01:32:20;8.60;91.00
36214;DHT22;37652;50.400;30.628;2023-04-06T01:34:21;9.00;89.70
36214;DHT22;37652;50.400;30.628;2023-04-06T01:36:22;9.30;91.10
36214;DHT22;37652;50.400;30.628;2023-04-06T01:38:22;9.90;91.40
36214;DHT22;37652;50.400;30.628;2023-04-06T01:40:23;8.50;90.90
36214;DHT22;37652;50.400;30.628;2023-04-06T01:44:26;9.20;91.20
36214;DHT22;37652;50.400;30.628;2023-04-06T01:46:27;9.30;90.60
36214;DHT22;37652;50.400;30.628;2023-04-06T01:48:28;9.00;91.30
36214;DHT22;37652;50.400;30.628;2023-04-06T01:50:28;9.00;91.70
36214;DHT22;37652;50.400;30.628;2023-04-06T01:54:30;8.60;91.20
36214;DHT22;37652;50.400;30.628;2023-04-06T01:56:31;8.70;91.20
36214;DHT22;37652;50.400;30.628;2023-04-06T01:58:32;9.30;91.40
36214;DHT22;37652;50.400;30.628;2023-04-06T02:00:33;8.60;91.20
36214;DHT22;37652;50.400;30.628;2023-04-06T02:02:33;9.30;91.40
36214;DHT22;37652;50.400;30.628;2023-04-06T02:04:34;9.20;90.50
36214;DHT22;37652;50.400;30.628;2023-04-06T02:08:36;9.30;91.30
36214;DHT22;37652;50.400;30.628;2023-04-06T02:10:37;9.00;91.30
36214;DHT22;37652;50.400;30.628;2023-04-06T02:14:39;9.20;91.60
36214;DHT22;37652;50.400;30.628;2023-04-06T02:16:40;8.70;91.40
36214;DHT22;37652;50.400;30.628;2023-04-06T02:18:40;9.20;91.50
36214;DHT22;37652;50.400;30.628;2023-04-06T02:20:41;9.80;91.60
36214;DHT22;37652;50.400;30.628;2023-04-06T02:22:42;9.10;91.30
36214;DHT22;37652;50.400;30.628;2023-04-06T02:24:42;8.90;90.20
36214;DHT22;37652;50.400;30.628;2023-04-06T02:26:43;8.60;91.20
36214;DHT22;37652;50.400;30.628;2023-04-06T02:28:44;9.10;91.30
36214;DHT22;37652;50.400;30.628;2023-04-06T02:30:45;9.40;91.30
36214;DHT22;37652;50.400;30.628;2023-04-06T02:32:47;9.90;91.50
36214;DHT22;37652;50.400;30.628;2023-04-06T02:34:47;8.80;91.50
36214;DHT22;37652;50.400;30.628;2023-04-06T02:36:48;9.00;91.30
36214;DHT22;37652;50.400;30.628;2023-04-06T02:38:49;8.90;91.20
36214;DHT22;37652;50.400;30.628;2023-04-06T02:42:51;9.20;91.30
36214;DHT22;37652;50.400;30.628;2023-04-06T02:44:51;8.80;90.90
36214;DHT22;37652;50.400;30.628;2023-04-06T02:46:52;9.40;91.20
36214;DHT22;37652;50.400;30.628;2023-04-06T02:48:53;8.50;91.00
36214;DHT22;37652;50.400;30.628;2023-04-06T02:54:56;9.40;91.30
36214;DHT22;37652;50.400;30.628;2023-04-06T02:56:56;9.50;91.30
36214;DHT22;37652;50.400;30.628;2023-04-06T02:58:57;9.30;91.40
36214;DHT22;37652;50.400;30.628;2023-04-06T03:02:59;9.40;92.10
36214;DHT22;37652;50.400;30.628;2023-04-06T03:05:00;9.30;91.10
36214;DHT22;37652;50.400;30.628;2023-04-06T03:07:00;8.70;91.00
36214;DHT22;37652;50.400;30.628;2023-04-06T03:09:01;8.90;90.90
36214;DHT22;37652;50.400;30.628;2023-04-06T03:13:03;8.90;90.70
36214;DHT22;37652;50.400;30.628;2023-04-06T03:15:04;8.70;90.60
36214;DHT22;37652;50.400;30.628;2023-04-06T03:17:05;8.70;90.60
36214;DHT22;37652;50.400;30.628;2023-04-06T03:19:06;9.40;89.50
36214;DHT22;37652;50.400;30.628;2023-04-06T03:21:06;9.40;90.70
36214;DHT22;37652;50.400;30.628;2023-04-06T03:23:07;8.90;90.40
36214;DHT22;37652;50.400;30.628;2023-04-06T03:25:08;9.50;90.80
36214;DHT22;37652;50.400;30.628;2023-04-06T03:27:09;8.80;90.70
36214;DHT22;37652;50.400;30.628;2023-04-06T03:29:10;8.80;90.40
36214;DHT22;37652;50.400;30.628;2023-04-06T03:31:11;8.70;90.50
36214;DHT22;37652;50.400;30.628;2023-04-06T03:33:11;9.60;90.70
36214;DHT22;37652;50.400;30.628;2023-04-06T03:35:12;9.60;90.60
36214;DHT22;37652;50.400;30.628;2023-04-06T03:37:13;9.00;87.90
36214;DHT22;37652;50.400;30.628;2023-04-06T03:41:15;8.80;90.30
36214;DHT22;37652;50.400;30.628;2023-04-06T03:43:16;9.40;90.60
36214;DHT22;37652;50.400;30.628;2023-04-06T03:47:18;9.70;90.50
36214;DHT22;37652;50.400;30.628;2023-04-06T03:49:18;9.00;90.20
36214;DHT22;37652;50.400;30.628;2023-04-06T03:51:19;9.10;90.20
36214;DHT22;37652;50.400;30.628;2023-04-06T03:53:20;9.60;90.30
36214;DHT22;37652;50.400;30.628;2023-04-06T03:55:20;9.10;90.20
36214;DHT22;37652;50.400;30.628;2023-04-06T04:01:23;9.20;91.20
36214;DHT22;37652;50.400;30.628;2023-04-06T04:03:25;9.50;86.10
36214;DHT22;37652;50.400;30.628;2023-04-06T04:05:28;9.50;85.30
36214;DHT22;37652;50.400;30.628;2023-04-06T04:07:29;9.50;88.60
36214;DHT22;37652;50.400;30.628;2023-04-06T04:09:29;9.70;88.60
36214;DHT22;37652;50.400;30.628;2023-04-06T04:11:30;9.60;88.50
36214;DHT22;37652;50.400;30.628;2023-04-06T04:15:32;9.80;87.80
36214;DHT22;37652;50.400;30.628;2023-04-06T04:21:43;9.50;87.60
36214;DHT22;37652;50.400;30.628;2023-04-06T04:23:45;10.10;87.80
36214;DHT22;37652;50.400;30.628;2023-04-06T04:25:46;10.40;88.00
36214;DHT22;37652;50.400;30.628;2023-04-06T04:27:46;10.00;87.70
36214;DHT22;37652;50.400;30.628;2023-04-06T04:29:47;9.50;86.50
36214;DHT22;37652;50.400;30.628;2023-04-06T04:31:49;9.40;87.30
36214;DHT22;37652;50.400;30.628;2023-04-06T04:35:51;9.80;86.00
36214;DHT22;37652;50.400;30.628;2023-04-06T04:39:52;9.90;87.10
36214;DHT22;37652;50.400;30.628;2023-04-06T04:41:53;10.10;87.00
36214;DHT22;37652;50.400;30.628;2023-04-06T04:43:54;10.10;87.30
36214;DHT22;37652;50.400;30.628;2023-04-06T04:49:57;10.00;86.80
36214;DHT22;37652;50.400;30.628;2023-04-06T04:53:59;9.50;86.50
36214;DHT22;37652;50.400;30.628;2023-04-06T04:58:01;10.40;90.00
36214;DHT22;37652;50.400;30.628;2023-04-06T05:00:03;9.70;83.00
36214;DHT22;37652;50.400;30.628;2023-04-06T05:06:06;9.60;85.70
36214;DHT22;37652;50.400;30.628;2023-04-06T05:08:06;9.80;85.80
36214;DHT22;37652;50.400;30.628;2023-04-06T05:10:08;9.50;85.50
36214;DHT22;37652;50.400;30.628;2023-04-06T05:12:08;10.20;85.60
36214;DHT22;37652;50.400;30.628;2023-04-06T05:14:09;10.50;85.60
36214;DHT22;37652;50.400;30.628;2023-04-06T05:16:10;9.90;82.20
36214;DHT22;37652;50.400;30.628;2023-04-06T05:18:12;10.60;85.10
36214;DHT22;37652;50.400;30.628;2023-04-06T05:20:12;10.10;82.60
36214;DHT22;37652;50.400;30.628;2023-04-06T05:22:13;10.40;85.10
36214;DHT22;37652;50.400;30.628;2023-04-06T05:24:16;9.70;84.90
36214;DHT22;37652;50.400;30.628;2023-04-06T05:26:17;9.80;84.60
36214;DHT22;37652;50.400;30.628;2023-04-06T05:28:18;9.80;84.60
36214;DHT22;37652;50.400;30.628;2023-04-06T05:30:19;9.80;84.50
36214;DHT22;37652;50.400;30.628;2023-04-06T05:34:23;9.80;83.80
36214;DHT22;37652;50.400;30.628;2023-04-06T05:36:24;9.80;83.30
36214;DHT22;37652;50.400;30.628;2023-04-06T05:38:25;10.30;84.10
36214;DHT22;37652;50.400;30.628;2023-04-06T05:40:26;10.10;84.00
36214;DHT22;37652;50.400;30.628;2023-04-06T05:44:27;10.30;84.00
36214;DHT22;37652;50.400;30.628;2023-04-06T05:46:28;10.50;83.90
36214;DHT22;37652;50.400;30.628;2023-04-06T05:48:29;10.20;81.60
36214;DHT22;37652;50.400;30.628;2023-04-06T05:50:30;9.90;83.50
36214;DHT22;37652;50.400;30.628;2023-04-06T05:52:31;10.80;82.70
36214;DHT22;37652;50.400;30.628;2023-04-06T05:54:32;10.70;83.60
36214;DHT22;37652;50.400;30.628;2023-04-06T05:56:33;10.70;83.30
36214;DHT22;37652;50.400;30.628;2023-04-06T05:58:33;10.50;83.10
36214;DHT22;37652;50.400;30.628;2023-04-06T06:00:34;10.30;82.70
36214;DHT22;37652;50.400;30.628;2023-04-06T06:02:35;10.10;82.10
36214;DHT22;37652;50.400;30.628;2023-04-06T06:04:36;11.10;82.20
36214;DHT22;37652;50.400;30.628;2023-04-06T06:06:37;11.00;82.10
36214;DHT22;37652;50.400;30.628;2023-04-06T06:08:37;10.20;80.20
36214;DHT22;37652;50.400;30.628;2023-04-06T06:10:39;11.00;81.50
36214;DHT22;37652;50.400;30.628;2023-04-06T06:12:40;10.90;80.80
36214;DHT22;37652;50.400;30.628;2023-04-06T06:14:41;11.40;81.00
36214;DHT22;37652;50.400;30.628;2023-04-06T06:16:42;11.50;80.70
36214;DHT22;37652;50.400;30.628;2023-04-06T06:18:42;11.30;80.40
36214;DHT22;37652;50.400;30.628;2023-04-06T06:20:43;11.30;80.80
36214;DHT22;37652;50.400;30.628;2023-04-06T06:22:44;11.00;80.70
36214;DHT22;37652;50.400;30.628;2023-04-06T06:24:44;10.70;80.00
36214;DHT22;37652;50.400;30.628;2023-04-06T06:26:45;11.50;80.10
36214;DHT22;37652;50.400;30.628;2023-04-06T06:28:46;11.40;77.70
36214;DHT22;37652;50.400;30.628;2023-04-06T06:30:47;11.70;78.00
36214;DHT22;37652;50.400;30.628;2023-04-06T06:32:49;11.20;78.40
36214;DHT22;37652;50.400;30.628;2023-04-06T06:34:50;11.80;78.60
36214;DHT22;37652;50.400;30.628;2023-04-06T06:36:51;11.40;78.30
36214;DHT22;37652;50.400;30.628;2023-04-06T06:38:52;11.40;77.40
36214;DHT22;37652;50.400;30.628;2023-04-06T06:40:53;12.20;77.70
36214;DHT22;37652;50.400;30.628;2023-04-06T06:42:53;12.10;75.90
36214;DHT22;37652;50.400;30.628;2023-04-06T06:44:54;12.40;76.90
36214;DHT22;37652;50.400;30.628;2023-04-06T06:46:55;12.20;77.00
36214;DHT22;37652;50.400;30.628;2023-04-06T06:48:58;11.80;77.40
36214;DHT22;37652;50.400;30.628;2023-04-06T06:50:58;12.50;77.50
36214;DHT22;37652;50.400;30.628;2023-04-06T06:52:59;12.20;77.90
36214;DHT22;37652;50.400;30.628;2023-04-06T06:55:00;12.00;76.60
36214;DHT22;37652;50.400;30.628;2023-04-06T06:57:01;12.20;76.20
36214;DHT22;37652;50.400;30.628;2023-04-06T06:59:02;12.30;75.00
36214;DHT22;37652;50.400;30.628;2023-04-06T07:01:03;12.50;76.40
36214;DHT22;37652;50.400;30.628;2023-04-06T07:03:05;12.70;76.70
36214;DHT22;37652;50.400;30.628;2023-04-06T07:05:06;12.40;76.80
36214;DHT22;37652;50.400;30.628;2023-04-06T07:07:07;12.20;75.20
36214;DHT22;37652;50.400;30.628;2023-04-06T07:09:08;11.90;75.60
36214;DHT22;37652;50.400;30.628;2023-04-06T07:11:09;11.60;77.40
36214;DHT22;37652;50.400;30.628;2023-04-06T07:13:10;12.30;76.50
36214;DHT22;37652;50.400;30.628;2023-04-06T07:15:11;12.20;76.00
36214;DHT22;37652;50.400;30.628;2023-04-06T07:17:12;12.10;78.00
36214;DHT22;37652;50.400;30.628;2023-04-06T07:19:13;12.10;78.00
36214;DHT22;37652;50.400;30.628;2023-04-06T07:21:13;12.20;77.90
36214;DHT22;37652;50.400;30.628;2023-04-06T07:23:14;11.70;77.40
36214;DHT22;37652;50.400;30.628;2023-04-06T07:25:15;12.20;77.80
36214;DHT22;37652;50.400;30.628;2023-04-06T07:27:16;11.80;77.70
36214;DHT22;37652;50.400;30.628;2023-04-06T07:29:19;11.60;77.80
36214;DHT22;37652;50.400;30.628;2023-04-06T07:31:20;12.10;77.00
36214;DHT22;37652;50.400;30.628;2023-04-06T07:33:20;12.10;76.50
36214;DHT22;37652;50.400;30.628;2023-04-06T07:35:22;11.90;77.90
36214;DHT22;37652;50.400;30.628;2023-04-06T07:37:23;12.20;78.00
36214;DHT22;37652;50.400;30.628;2023-04-06T07:39:25;11.80;77.70
36214;DHT22;37652;50.400;30.628;2023-04-06T07:41:27;12.60;78.60
36214;DHT22;37652;50.400;30.628;2023-04-06T07:43:27;11.80;78.40
36214;DHT22;37652;50.400;30.628;2023-04-06T07:45:29;12.20;78.70
36214;DHT22;37652;50.400;30.628;2023-04-06T07:47:29;12.20;76.80
36214;DHT22;37652;50.400;30.628;2023-04-06T07:49:30;12.50;79.20
36214;DHT22;37652;50.400;30.628;2023-04-06T07:51:36;12.70;79.00
36214;DHT22;37652;50.400;30.628;2023-04-06T07:53:37;12.20;78.80
36214;DHT22;37652;50.400;30.628;2023-04-06T07:57:39;12.40;78.50
36214;DHT22;37652;50.400;30.628;2023-04-06T07:59:39;12.40;77.40
36214;DHT22;37652;50.400;30.628;2023-04-06T08:05:43;12.40;77.70
36214;DHT22;37652;50.400;30.628;2023-04-06T08:07:44;12.30;77.40
36214;DHT22;37652;50.400;30.628;2023-04-06T08:09:45;12.60;75.80
36214;DHT22;37652;50.400;30.628;2023-04-06T08:11:45;12.80;77.40
36214;DHT22;37652;50.400;30.628;2023-04-06T08:13:48;13.20;77.50
36214;DHT22;37652;50.400;30.628;2023-04-06T08:15:48;13.30;77.60
36214;DHT22;37652;50.400;30.628;2023-04-06T08:17:49;13.00;77.30
36214;DHT22;37652;50.400;30.628;2023-04-06T08:21:51;12.30;77.20
36214;DHT22;37652;50.400;30.628;2023-04-06T08:25:53;12.80;79.40
36214;DHT22;37652;50.400;30.628;2023-04-06T08:27:54;12.80;75.70
36214;DHT22;37652;50.400;30.628;2023-04-06T08:31:56;12.70;78.20
36214;DHT22;37652;50.400;30.628;2023-04-06T08:33:57;13.30;78.10
36214;DHT22;37652;50.400;30.628;2023-04-06T08:35:58;13.40;78.30
36214;DHT22;37652;50.400;30.628;2023-04-06T08:37:59;12.50;78.90
36214;DHT22;37652;50.400;30.628;2023-04-06T08:40:00;12.60;78.20
36214;DHT22;37652;50.400;30.628;2023-04-06T08:42:01;13.40;78.90
36214;DHT22;37652;50.400;30.628;2023-04-06T08:44:03;13.20;75.70
36214;DHT22;37652;50.400;30.628;2023-04-06T08:48:06;13.30;77.90
36214;DHT22;37652;50.400;30.628;2023-04-06T08:50:08;13.40;80.00
36214;DHT22;37652;50.400;30.628;2023-04-06T08:52:10;13.50;78.60
36214;DHT22;37652;50.400;30.628;2023-04-06T08:54:11;12.70;75.90
36214;DHT22;37652;50.400;30.628;2023-04-06T08:56:12;13.00;83.60
36214;DHT22;37652;50.400;30.628;2023-04-06T08:58:13;13.00;75.50
36214;DHT22;37652;50.400;30.628;2023-04-06T09:00:14;12.90;76.00
36214;DHT22;37652;50.400;30.628;2023-04-06T09:02:18;13.10;79.10
36214;DHT22;37652;50.400;30.628;2023-04-06T09:04:19;12.80;78.80
36214;DHT22;37652;50.400;30.628;2023-04-06T09:06:21;13.40;77.10
36214;DHT22;37652;50.400;30.628;2023-04-06T09:08:22;12.70;79.40
36214;DHT22;37652;50.400;30.628;2023-04-06T09:10:23;12.60;79.60
36214;DHT22;37652;50.400;30.628;2023-04-06T09:12:30;13.10;78.40
36214;DHT22;37652;50.400;30.628;2023-04-06T09:14:37;12.50;80.00
36214;DHT22;37652;50.400;30.628;2023-04-06T09:16:42;12.40;80.40
36214;DHT22;37652;50.400;30.628;2023-04-06T09:20:45;12.50;81.60
36214;DHT22;37652;50.400;30.628;2023-04-06T09:22:46;12.20;81.90
36214;DHT22;37652;50.400;30.628;2023-04-06T09:26:47;12.80;82.60
36214;DHT22;37652;50.400;30.628;2023-04-06T09:28:49;12.20;82.80
36214;DHT22;37652;50.400;30.628;2023-04-06T09:30:50;12.90;83.10
36214;DHT22;37652;50.400;30.628;2023-04-06T09:32:53;12.10;83.60
36214;DHT22;37652;50.400;30.628;2023-04-06T09:34:54;12.10;84.00
36214;DHT22;37652;50.400;30.628;2023-04-06T09:36:54;11.90;84.40
36214;DHT22;37652;50.400;30.628;2023-04-06T09:38:57;12.20;82.40
36214;DHT22;37652;50.400;30.628;2023-04-06T09:40:57;12.10;83.40
36214;DHT22;37652;50.400;30.628;2023-04-06T09:42:58;11.50;87.30
36214;DHT22;37652;50.400;30.628;2023-04-06T09:45:00;11.80;85.60
36214;DHT22;37652;50.400;30.628;2023-04-06T09:47:01;11.70;85.50
36214;DHT22;37652;50.400;30.628;2023-04-06T09:49:05;11.80;89.00
36214;DHT22;37652;50.400;30.628;2023-04-06T09:51:07;11.60;87.80
36214;DHT22;37652;50.400;30.628;2023-04-06T09:53:09;11.10;89.40
36214;DHT22;37652;50.400;30.628;2023-04-06T09:55:10;11.50;87.30
36214;DHT22;37652;50.400;30.628;2023-04-06T09:57:27;11.50;87.90
36214;DHT22;37652;50.400;30.628;2023-04-06T10:01:51;11.60;89.50
36214;DHT22;37652;50.400;30.628;2023-04-06T10:05:55;11.30;89.20
36214;DHT22;37652;50.400;30.628;2023-04-06T10:08:02;10.90;91.20
36214;DHT22;37652;50.400;30.628;2023-04-06T10:10:07;10.80;91.40
36214;DHT22;37652;50.400;30.628;2023-04-06T10:12:09;11.60;91.60
36214;DHT22;37652;50.400;30.628;2023-04-06T10:14:10;10.80;91.50
36214;DHT22;37652;50.400;30.628;2023-04-06T10:16:13;11.20;90.30
36214;DHT22;37652;50.400;30.628;2023-04-06T10:18:15;11.20;90.30
36214;DHT22;37652;50.400;30.628;2023-04-06T10:20:23;10.80;91.70
36214;DHT22;37652;50.400;30.628;2023-04-06T10:25:01;10.90;92.00
36214;DHT22;37652;50.400;30.628;2023-04-06T10:27:03;11.60;92.10
36214;DHT22;37652;50.400;30.628;2023-04-06T10:29:04;10.80;90.60
36214;DHT22;37652;50.400;30.628;2023-04-06T10:31:06;11.40;92.20
36214;DHT22;37652;50.400;30.628;2023-04-06T10:33:17;11.30;90.50
36214;DHT22;37652;50.400;30.628;2023-04-06T10:37:20;11.30;90.50
36214;DHT22;37652;50.400;30.628;2023-04-06T10:39:24;11.10;94.30
36214;DHT22;37652;50.400;30.628;2023-04-06T10:41:43;11.50;90.60
36214;DHT22;37652;50.400;30.628;2023-04-06T10:43:45;11.70;91.90
36214;DHT22;37652;50.400;30.628;2023-04-06T10:45:55;11.60;90.60
36214;DHT22;37652;50.400;30.628;2023-04-06T10:47:56;11.80;91.90
36214;DHT22;37652;50.400;30.628;2023-04-06T10:49:58;11.10;91.50
36214;DHT22;37652;50.400;30.628;2023-04-06T10:51:58;11.90;91.70
36214;DHT22;37652;50.400;30.628;2023-04-06T10:54:00;11.60;91.60
36214;DHT22;37652;50.400;30.628;2023-04-06T10:56:02;11.40;91.60
36214;DHT22;37652;50.400;30.628;2023-04-06T10:58:07;11.70;91.50
36214;DHT22;37652;50.400;30.628;2023-04-06T11:00:08;11.10;91.30
36214;DHT22;37652;50.400;30.628;2023-04-06T11:02:19;11.40;91.30
36214;DHT22;37652;50.400;30.628;2023-04-06T11:04:21;11.50;91.60
36214;DHT22;37652;50.400;30.628;2023-04-06T11:06:26;11.00;91.40
36214;DHT22;37652;50.400;30.628;2023-04-06T11:08:30;11.50;91.60
36214;DHT22;37652;50.400;30.628;2023-04-06T11:10:31;11.40;91.50
36214;DHT22;37652;50.400;30.628;2023-04-06T11:12:32;11.70;91.70
36214;DHT22;37652;50.400;30.628;2023-04-06T11:14:33;11.10;91.60
36214;DHT22;37652;50.400;30.628;2023-04-06T11:16:33;11.60;91.60
36214;DHT22;37652;50.400;30.628;2023-04-06T11:18:34;11.80;91.70
36214;DHT22;37652;50.400;30.628;2023-04-06T11:20:35;11.90;91.90
36214;DHT22;37652;50.400;30.628;2023-04-06T11:22:36;11.10;91.80
36214;DHT22;37652;50.400;30.628;2023-04-06T11:24:36;11.50;91.10
36214;DHT22;37652;50.400;30.628;2023-04-06T11:26:54;11.60;90.50
36214;DHT22;37652;50.400;30.628;2023-04-06T11:28:55;11.90;91.30
36214;DHT22;37652;50.400;30.628;2023-04-06T11:33:01;11.90;90.10
36214;DHT22;37652;50.400;30.628;2023-04-06T11:35:02;11.80;91.40
36214;DHT22;37652;50.400;30.628;2023-04-06T11:37:08;11.50;91.40
36214;DHT22;37652;50.400;30.628;2023-04-06T11:39:09;11.90;90.40
36214;DHT22;37652;50.400;30.628;2023-04-06T11:41:10;11.80;91.20
36214;DHT22;37652;50.400;30.628;2023-04-06T11:43:11;11.60;91.40
36214;DHT22;37652;50.400;30.628;2023-04-06T11:45:15;11.90;90.20
36214;DHT22;37652;50.400;30.628;2023-04-06T11:51:24;12.10;91.80
36214;DHT22;37652;50.400;30.628;2023-04-06T11:53:28;12.20;91.40
36214;DHT22;37652;50.400;30.628;2023-04-06T11:57:30;12.10;91.30
36214;DHT22;37652;50.400;30.628;2023-04-06T11:59:32;12.20;91.20
36214;DHT22;37652;50.400;30.628;2023-04-06T12:01:33;12.50;91.00
36214;DHT22;37652;50.400;30.628;2023-04-06T12:03:33;12.20;89.50
36214;DHT22;37652;50.400;30.628;2023-04-06T12:05:34;13.00;90.60
36214;DHT22;37652;50.400;30.628;2023-04-06T12:07:35;12.30;90.40
36214;DHT22;37652;50.400;30.628;2023-04-06T12:09:36;12.60;90.30
36214;DHT22;37652;50.400;30.628;2023-04-06T12:11:37;13.50;89.80
36214;DHT22;37652;50.400;30.628;2023-04-06T12:13:38;13.10;89.00
36214;DHT22;37652;50.400;30.628;2023-04-06T12:15:39;12.80;86.30
36214;DHT22;37652;50.400;30.628;2023-04-06T12:17:39;13.00;87.70
36214;DHT22;37652;50.400;30.628;2023-04-06T12:21:41;13.00;88.10
36214;DHT22;37652;50.400;30.628;2023-04-06T12:25:43;13.40;92.90
36214;DHT22;37652;50.400;30.628;2023-04-06T12:27:44;12.70;89.90
36214;DHT22;37652;50.400;30.628;2023-04-06T12:29:45;12.90;88.50
36214;DHT22;37652;50.400;30.628;2023-04-06T12:31:46;13.30;88.60
36214;DHT22;37652;50.400;30.628;2023-04-06T12:33:48;13.30;85.30
36214;DHT22;37652;50.400;30.628;2023-04-06T12:39:52;12.70;84.40
36214;DHT22;37652;50.400;30.628;2023-04-06T12:43:55;13.60;84.70
36214;DHT22;37652;50.400;30.628;2023-04-06T12:45:56;13.00;86.60
36214;DHT22;37652;50.400;30.628;2023-04-06T12:49:58;12.80;86.70
36214;DHT22;37652;50.400;30.628;2023-04-06T12:51:59;13.00;86.70
36214;DHT22;37652;50.400;30.628;2023-04-06T12:54:00;13.00;84.60
36214;DHT22;37652;50.400;30.628;2023-04-06T12:56:02;13.00;84.80
36214;DHT22;37652;50.400;30.628;2023-04-06T13:00:05;13.30;87.60
36214;DHT22;37652;50.400;30.628;2023-04-06T13:02:06;12.30;87.30
36214;DHT22;37652;50.400;30.628;2023-04-06T13:04:06;12.60;87.30
36214;DHT22;37652;50.400;30.628;2023-04-06T13:06:08;13.10;87.10
36214;DHT22;37652;50.400;30.628;2023-04-06T13:08:08;13.10;85.40
36214;DHT22;37652;50.400;30.628;2023-04-06T13:10:09;13.10;87.20
36214;DHT22;37652;50.400;30.628;2023-04-06T13:14:11;12.50;87.50
36214;DHT22;37652;50.400;30.628;2023-04-06T13:16:12;12.50;88.40
36214;DHT22;37652;50.400;30.628;2023-04-06T13:18:12;12.70;88.80
36214;DHT22;37652;50.400;30.628;2023-04-06T13:20:13;12.80;89.60
36214;DHT22;37652;50.400;30.628;2023-04-06T13:22:14;12.60;89.90
36214;DHT22;37652;50.400;30.628;2023-04-06T13:24:16;12.40;90.00
36214;DHT22;37652;50.400;30.628;2023-04-06T13:26:16;12.60;90.50
36214;DHT22;37652;50.400;30.628;2023-04-06T13:30:19;12.10;90.80
36214;DHT22;37652;50.400;30.628;2023-04-06T13:32:20;11.90;90.60
36214;DHT22;37652;50.400;30.628;2023-04-06T13:36:22;11.60;91.40
36214;DHT22;37652;50.400;30.628;2023-04-06T13:38:23;12.00;91.80
36214;DHT22;37652;50.400;30.628;2023-04-06T13:50:33;11.90;91.10
36214;DHT22;37652;50.400;30.628;2023-04-06T13:52:35;12.10;91.10
36214;DHT22;37652;50.400;30.628;2023-04-06T13:54:36;11.80;90.80
36214;DHT22;37652;50.400;30.628;2023-04-06T13:56:37;12.00;90.90
36214;DHT22;37652;50.400;30.628;2023-04-06T13:58:38;12.30;90.90
36214;DHT22;37652;50.400;30.628;2023-04-06T14:00:38;12.40;90.40
36214;DHT22;37652;50.400;30.628;2023-04-06T14:02:40;11.70;90.30
36214;DHT22;37652;50.400;30.628;2023-04-06T14:06:42;11.90;90.30
36214;DHT22;37652;50.400;30.628;2023-04-06T14:08:45;12.40;90.20
36214;DHT22;37652;50.400;30.628;2023-04-06T14:10:46;12.10;90.10
36214;DHT22;37652;50.400;30.628;2023-04-06T14:12:47;12.60;90.10
36214;DHT22;37652;50.400;30.628;2023-04-06T14:14:47;12.70;90.40
36214;DHT22;37652;50.400;30.628;2023-04-06T14:18:49;12.20;88.20
36214;DHT22;37652;50.400;30.628;2023-04-06T14:20:55;11.80;90.20
36214;DHT22;37652;50.400;30.628;2023-04-06T14:22:56;11.90;90.10
36214;DHT22;37652;50.400;30.628;2023-04-06T14:24:57;12.40;88.80
36214;DHT22;37652;50.400;30.628;2023-04-06T14:26:58;12.20;89.60
36214;DHT22;37652;50.400;30.628;2023-04-06T14:31:02;12.40;89.40
36214;DHT22;37652;50.400;30.628;2023-04-06T14:35:07;12.80;87.80
36214;DHT22;37652;50.400;30.628;2023-04-06T14:37:08;12.30;89.50
36214;DHT22;37652;50.400;30.628;2023-04-06T14:39:09;12.50;89.20
36214;DHT22;37652;50.400;30.628;2023-04-06T14:41:18;12.50;86.60
36214;DHT22;37652;50.400;30.628;2023-04-06T14:45:20;12.20;88.10
36214;DHT22;37652;50.400;30.628;2023-04-06T14:47:21;12.60;86.70
36214;DHT22;37652;50.400;30.628;2023-04-06T14:49:22;13.00;88.20
36214;DHT22;37652;50.400;30.628;2023-04-06T14:51:26;12.70;85.70
36214;DHT22;37652;50.400;30.628;2023-04-06T14:53:30;12.50;88.80
36214;DHT22;37652;50.400;30.628;2023-04-06T14:55:31;12.70;85.90
36214;DHT22;37652;50.400;30.628;2023-04-06T14:59:33;12.50;85.60
36214;DHT22;37652;50.400;30.628;2023-04-06T15:01:34;12.70;85.40